Time;durP1;ratioP1;P1;durP2;ratioP2;P2;SDS_P1;SDS_P2;PMS_P1;PMS_P2;Temp;Humidity;BMP_temperature;BMP_pressure;BME280_temperature;BME280_humidity;BME280_pressure;Samples;Min_cycle;Max_cycle;Signal;HPM_P1;HPM_P2
2021/09/22 00:01:30;;;;;;;10.70;4.70;;;;;;;11.65;78.87;102409.69;6266608;28;20185;-73
2021/09/22 00:04:36;;;;;;;6.85;5.38;;;;;;;11.64;78.58;102408.84;6266295;28;20270;-72
2021/09/22 00:07:41;;;;;;;10.13;5.10;;;;;;;11.56;78.70;102405.31;6265150;28;20500;-73
2021/09/22 00:10:46;;;;;;;12.52;5.05;;;;;;;11.56;77.94;102410.78;6266426;28;20185;-72
2021/09/22 00:13:50;;;;;;;8.88;4.07;;;;;;;11.56;78.10;102413.50;6266376;28;20223;-73
2021/09/22 00:16:57;;;;;;;11.23;4.55;;;;;;;11.51;78.30;102407.75;6265973;28;20220;-73
2021/09/22 00:20:04;;;;;;;4.90;4.45;;;;;;;11.40;79.08;102405.50;6265566;28;20272;-73
2021/09/22 00:23:10;;;;;;;4.70;4.20;;;;;;;11.46;78.39;102410.19;6265812;28;20185;-73
2021/09/22 00:26:14;;;;;;;12.50;4.57;;;;;;;11.32;78.85;102409.97;6265788;28;20189;-74
2021/09/22 00:29:19;;;;;;;5.95;4.63;;;;;;;11.35;78.51;102418.84;6266058;28;20243;-73
2021/09/22 00:32:23;;;;;;;5.35;4.30;;;;;;;11.44;77.68;102415.88;6265046;28;20232;-74
2021/09/22 00:35:29;;;;;;;6.90;4.57;;;;;;;11.50;77.54;102408.81;6264012;28;20201;-73
2021/09/22 00:38:33;;;;;;;9.07;5.28;;;;;;;11.46;77.64;102410.19;6265396;28;20251;-73
2021/09/22 00:41:38;;;;;;;4.78;4.53;;;;;;;11.43;78.12;102416.06;6264348;28;20493;-73
2021/09/22 00:44:51;;;;;;;7.60;4.57;;;;;;;11.50;77.77;102411.53;6265400;28;20185;-73
2021/09/22 00:47:55;;;;;;;4.97;4.63;;;;;;;11.37;79.36;102412.19;6246798;28;20200;-73
2021/09/22 00:51:15;;;;;;;5.10;4.60;;;;;;;11.38;79.18;102407.53;6247309;28;20200;-73
2021/09/22 00:54:19;;;;;;;7.93;4.50;;;;;;;11.38;78.94;102407.53;6246931;28;20489;-73
2021/09/22 00:57:24;;;;;;;6.82;4.90;;;;;;;11.26;79.19;102397.06;6246565;28;20496;-72
2021/09/22 01:00:29;;;;;;;10.07;4.45;;;;;;;11.38;78.99;102408.38;6247689;28;20225;-73
2021/09/22 01:03:34;;;;;;;5.45;5.00;;;;;;;11.30;79.84;102414.78;6247007;28;20232;-73
2021/09/22 01:06:40;;;;;;;9.07;5.20;;;;;;;11.28;80.16;102403.19;6246238;28;20200;-73
2021/09/22 01:09:46;;;;;;;7.05;4.57;;;;;;;11.22;81.00;102417.56;6263713;28;20415;-73
2021/09/22 01:12:51;;;;;;;5.13;4.75;;;;;;;11.19;82.04;102419.84;6265107;28;20191;-73
2021/09/22 01:15:55;;;;;;;6.07;4.85;;;;;;;11.14;82.74;102425.84;6264574;28;20251;-73
2021/09/22 01:19:00;;;;;;;4.93;4.53;;;;;;;11.22;81.53;102420.31;6264889;28;20240;-73
2021/09/22 01:22:06;;;;;;;5.50;4.63;;;;;;;11.26;80.99;102416.19;6264504;28;20201;-73
2021/09/22 01:25:28;;;;;;;9.98;4.70;;;;;;;11.23;81.06;102416.56;6246233;28;20551;-73
2021/09/22 01:28:33;;;;;;;5.30;4.80;;;;;;;11.26;80.66;102416.19;6245610;28;20267;-73
2021/09/22 01:31:42;;;;;;;8.90;4.90;;;;;;;11.33;80.40;102419.88;6244772;28;20311;-73
2021/09/22 01:34:47;;;;;;;12.80;4.97;;;;;;;11.29;81.11;102428.63;6245650;28;20224;-72
2021/09/22 01:38:00;;;;;;;6.30;4.80;;;;;;;11.34;80.85;102412.53;6245678;28;20480;-73
2021/09/22 01:41:23;;;;;;;9.65;5.07;;;;;;;11.24;80.99;102417.41;6245472;28;20208;-73
2021/09/22 01:44:33;;;;;;;12.63;5.85;;;;;;;11.31;81.01;102424.69;6245794;28;20459;-73
2021/09/22 01:47:47;;;;;;;6.35;5.00;;;;;;;11.43;80.47;102422.34;6246243;28;20224;-74
2021/09/22 01:50:51;;;;;;;9.07;4.97;;;;;;;11.35;80.74;102418.84;6245507;28;20204;-73
2021/09/22 01:53:57;;;;;;;6.25;5.25;;;;;;;11.49;80.25;102426.22;6245603;28;20519;-73
2021/09/22 01:57:04;;;;;;;5.43;4.72;;;;;;;11.39;80.59;102421.03;6246442;28;20200;-73
2021/09/22 02:00:13;;;;;;;9.15;4.65;;;;;;;11.34;80.62;102434.41;6263774;28;20258;-71
2021/09/22 02:03:18;;;;;;;7.32;4.93;;;;;;;11.42;80.56;102425.28;6262121;28;20224;-71
2021/09/22 02:06:29;;;;;;;5.15;4.68;;;;;;;11.45;80.21;102424.91;6245175;28;20275;-72
2021/09/22 02:09:34;;;;;;;8.93;5.20;;;;;;;11.27;81.82;102420.59;6263763;28;20243;-72
2021/09/22 02:12:41;;;;;;;5.85;4.97;;;;;;;11.49;80.43;102421.63;6244894;28;20211;-72
2021/09/22 02:15:46;;;;;;;8.13;4.70;;;;;;;11.49;80.47;102426.22;6245397;28;20201;-72
2021/09/22 02:19:13;;;;;;;24.92;5.75;;;;;;;11.40;80.61;102424.63;6225366;28;20406;-72
2021/09/22 02:22:27;;;;;;;10.23;5.10;;;;;;;11.35;80.20;102424.31;6245303;28;20280;-72
2021/09/22 02:25:45;;;;;;;10.98;4.97;;;;;;;11.39;79.72;102421.03;6245150;28;20200;-72
2021/09/22 02:28:50;;;;;;;5.28;4.78;;;;;;;11.42;80.08;102422.53;6245168;28;20201;-72
2021/09/22 02:31:54;;;;;;;4.68;4.35;;;;;;;11.36;81.05;102418.66;6245354;28;20201;-73
2021/09/22 02:35:05;;;;;;;5.63;4.38;;;;;;;11.28;82.26;102419.59;6244633;28;20408;-72
2021/09/22 02:38:20;;;;;;;6.50;5.15;;;;;;;11.22;81.65;102423.03;6262530;28;20205;-73
2021/09/22 02:41:27;;;;;;;5.00;4.60;;;;;;;11.32;81.90;102431.84;6244247;28;20227;-72
2021/09/22 02:44:31;;;;;;;5.10;4.70;;;;;;;11.22;82.99;102422.22;6245576;28;20200;-72
2021/09/22 02:47:35;;;;;;;5.43;4.97;;;;;;;11.29;82.39;102426.75;6245091;28;20232;-72
2021/09/22 02:50:40;;;;;;;5.72;5.32;;;;;;;11.36;79.81;102426.84;6244689;28;20204;-72
2021/09/22 02:53:46;;;;;;;4.90;4.45;;;;;;;11.43;79.42;102427.00;6244788;28;20243;-73
2021/09/22 02:56:55;;;;;;;4.80;4.50;;;;;;;11.43;79.31;102440.66;6244354;28;20488;-73
2021/09/22 02:59:59;;;;;;;5.40;4.93;;;;;;;11.44;78.84;102434.13;6244469;28;20550;-72
2021/09/22 03:03:04;;;;;;;4.95;4.50;;;;;;;11.53;78.79;102433.88;6244175;28;20201;-72
2021/09/22 03:06:09;;;;;;;5.50;5.00;;;;;;;11.53;78.59;102433.03;6258590;28;20229;-73
2021/09/22 03:09:15;;;;;;;7.75;5.22;;;;;;;11.57;78.26;102428.91;6260837;28;20369;-73
2021/09/22 03:12:21;;;;;;;5.80;5.30;;;;;;;11.48;78.38;102436.31;6262714;28;20185;-73
2021/09/22 03:15:25;;;;;;;5.93;5.35;;;;;;;11.32;79.38;102436.47;6262395;28;20185;-73
2021/09/22 03:18:30;;;;;;;5.25;4.85;;;;;;;11.40;78.95;102432.81;6259999;28;20267;-73
2021/09/22 03:21:34;;;;;;;5.60;5.28;;;;;;;11.38;79.04;102445.78;6260163;28;20288;-72
2021/09/22 03:24:38;;;;;;;6.32;5.40;;;;;;;11.36;79.19;102436.94;6262552;28;20188;-72
2021/09/22 03:27:44;;;;;;;5.22;4.95;;;;;;;11.43;78.89;102449.69;6260886;28;20236;-72
2021/09/22 03:30:52;;;;;;;5.65;5.07;;;;;;;11.24;79.80;102450.19;6260475;28;20365;-73
2021/09/22 03:33:56;;;;;;;5.45;5.15;;;;;;;11.32;79.76;102442.75;6261069;28;20500;-73
2021/09/22 03:37:00;;;;;;;6.68;5.28;;;;;;;11.38;79.44;102445.78;6260706;28;20593;-72
2021/09/22 03:40:06;;;;;;;5.18;4.78;;;;;;;11.17;81.07;102443.78;6260897;28;20266;-73
2021/09/22 03:43:12;;;;;;;5.82;5.25;;;;;;;11.31;80.38;102446.53;6261147;28;20204;-72
2021/09/22 03:46:17;;;;;;;9.25;5.75;;;;;;;11.09;81.86;102436.44;6260870;28;20208;-73
2021/09/22 03:49:23;;;;;;;9.10;5.32;;;;;;;11.33;80.80;102439.00;6260029;28;20275;-72
2021/09/22 03:52:28;;;;;;;5.10;4.80;;;;;;;11.28;81.22;102446.91;6261002;28;20323;-72
2021/09/22 03:55:32;;;;;;;7.03;5.40;;;;;;;11.20;81.62;102441.50;6262920;28;20232;-72
2021/09/22 03:58:38;;;;;;;5.20;4.90;;;;;;;11.16;81.69;102425.66;6264869;28;20492;-72
2021/09/22 04:01:43;;;;;;;5.57;5.05;;;;;;;11.13;81.72;102421.41;6264367;28;20283;-72
2021/09/22 04:04:48;;;;;;;5.28;4.78;;;;;;;11.07;81.84;102422.13;6263712;28;20559;-73
2021/09/22 04:07:52;;;;;;;7.03;5.55;;;;;;;10.87;83.61;102415.44;6264641;28;20483;-72
2021/09/22 04:10:56;;;;;;;5.50;5.05;;;;;;;10.77;84.63;102425.75;6265100;28;20211;-72
2021/09/22 04:14:03;;;;;;;6.10;5.47;;;;;;;10.69;84.67;102428.53;6265173;28;20201;-72
2021/09/22 04:17:08;;;;;;;5.30;4.90;;;;;;;10.76;83.56;102424.03;6264502;28;20212;-72
2021/09/22 04:20:13;;;;;;;5.82;4.97;;;;;;;10.94;82.67;102427.34;6264248;28;20364;-73
2021/09/22 04:23:17;;;;;;;5.53;5.10;;;;;;;10.95;82.19;102411.81;6263871;28;20232;-72
2021/09/22 04:26:22;;;;;;;5.40;4.90;;;;;;;11.03;81.31;102409.88;6264123;28;20275;-73
2021/09/22 04:29:35;;;;;;;8.10;4.88;;;;;;;10.90;82.47;102415.09;6264239;28;20201;-72
2021/09/22 04:32:58;;;;;;;5.22;4.70;;;;;;;10.86;82.68;102418.38;6264503;28;20423;-72
2021/09/22 04:36:20;;;;;;;7.18;4.75;;;;;;;10.91;82.75;102416.81;6265905;28;20252;-72
2021/09/22 04:39:43;;;;;;;5.85;4.82;;;;;;;10.86;82.95;102419.19;6264397;28;20468;-72
2021/09/22 04:43:06;;;;;;;6.13;4.93;;;;;;;10.85;83.32;102414.78;6264251;28;20515;-73
2021/09/22 04:46:30;;;;;;;6.78;5.35;;;;;;;10.89;83.41;102410.66;6264608;28;20239;-72
2021/09/22 04:49:53;;;;;;;6.10;5.03;;;;;;;10.73;83.72;102402.59;6265573;28;20185;-72
2021/09/22 04:53:16;;;;;;;6.68;4.90;;;;;;;10.80;83.38;102411.75;6263957;28;20419;-73
2021/09/22 04:56:39;;;;;;;7.90;5.38;;;;;;;10.73;83.88;102404.47;6265329;28;20189;-73
2021/09/22 05:00:01;;;;;;;11.68;5.30;;;;;;;10.64;84.67;102420.88;6263900;28;20186;-73
2021/09/22 05:03:26;;;;;;;6.53;4.90;;;;;;;10.75;83.59;102422.38;6264970;28;20201;-72
2021/09/22 05:06:49;;;;;;;7.13;5.10;;;;;;;10.66;84.65;102417.97;6263526;28;20419;-72
2021/09/22 05:10:12;;;;;;;12.95;5.03;;;;;;;10.71;84.04;102428.38;6265088;28;20216;-72
2021/09/22 05:13:34;;;;;;;8.38;4.40;;;;;;;10.80;83.14;102430.88;6264908;28;20248;-72
2021/09/22 05:16:57;;;;;;;5.40;4.93;;;;;;;10.92;80.13;102423.94;6264447;28;20189;-72
2021/09/22 05:20:22;;;;;;;5.47;5.03;;;;;;;10.96;78.84;102422.56;6264933;28;20216;-72
2021/09/22 05:23:44;;;;;;;9.23;5.28;;;;;;;10.91;78.60;102422.28;6264422;28;20203;-72
2021/09/22 05:27:08;;;;;;;5.70;4.28;;;;;;;10.97;78.57;102410.59;6263279;28;20221;-72
2021/09/22 05:30:31;;;;;;;6.68;4.30;;;;;;;11.00;78.27;102407.50;6264245;28;20185;-72
2021/09/22 05:33:54;;;;;;;4.78;4.40;;;;;;;10.99;78.19;102414.00;6263259;28;20215;-72
2021/09/22 05:37:18;;;;;;;4.75;4.35;;;;;;;10.94;77.99;102404.66;6263951;28;20252;-72
2021/09/22 05:40:41;;;;;;;5.95;4.65;;;;;;;10.94;77.73;102410.13;6264053;28;20189;-73
2021/09/22 05:44:05;;;;;;;6.22;4.25;;;;;;;10.96;78.70;102408.91;6263760;28;20248;-73
2021/09/22 05:47:28;;;;;;;7.97;4.50;;;;;;;10.81;80.92;102421.63;6263893;28;20192;-72
2021/09/22 05:51:05;;;;;;;8.80;4.88;;;;;;;10.77;80.58;102414.84;6218989;28;20208;-73
2021/09/22 05:54:29;;;;;;;4.88;4.60;;;;;;;10.74;80.79;102415.19;6263818;28;20189;-73
2021/09/22 05:57:52;;;;;;;7.57;4.68;;;;;;;10.68;81.75;102421.41;6263382;28;20185;-73
2021/09/22 06:01:14;;;;;;;4.57;4.25;;;;;;;10.70;81.40;102419.31;6262260;28;20552;-73
2021/09/22 06:04:52;;;;;;;4.70;4.40;;;;;;;10.69;81.30;102417.63;6229464;28;20237;-73
2021/09/22 06:08:16;;;;;;;11.23;5.13;;;;;;;10.75;82.52;102411.44;6263360;28;20192;-72
2021/09/22 06:11:45;;;;;;;5.00;4.53;;;;;;;10.73;82.13;102413.50;6245092;28;20203;-73
2021/09/22 06:14:50;;;;;;;8.18;4.38;;;;;;;10.97;79.84;102405.13;6244835;28;20313;-73
2021/09/22 06:17:54;;;;;;;5.88;4.75;;;;;;;11.03;79.18;102412.63;6261434;28;20445;-72
2021/09/22 06:21:01;;;;;;;5.57;4.57;;;;;;;11.13;78.60;102410.50;6244555;28;20204;-73
2021/09/22 06:24:06;;;;;;;5.18;4.68;;;;;;;11.15;78.74;102408.41;6263012;28;20386;-72
2021/09/22 06:27:28;;;;;;;5.10;4.50;;;;;;;11.25;77.90;102403.56;6244800;28;20205;-72
2021/09/22 06:30:32;;;;;;;4.40;4.03;;;;;;;11.23;78.73;102413.81;6262884;28;20184;-73
2021/09/22 06:33:36;;;;;;;10.13;4.40;;;;;;;11.23;78.31;102404.78;6245146;28;20228;-73
2021/09/22 06:36:49;;;;;;;7.40;4.28;;;;;;;11.15;80.22;102404.81;6244831;28;20291;-73
2021/09/22 06:39:54;;;;;;;6.28;4.43;;;;;;;11.22;79.32;102417.56;6244101;28;20232;-73
2021/09/22 06:43:01;;;;;;;4.60;4.30;;;;;;;11.31;79.97;102405.56;6245164;28;20224;-72
2021/09/22 06:46:06;;;;;;;9.52;4.97;;;;;;;11.40;79.55;102410.97;6261822;28;20348;-73
2021/09/22 06:49:10;;;;;;;5.82;4.40;;;;;;;11.50;78.34;102414.28;6262450;28;20191;-72
2021/09/22 06:52:14;;;;;;;11.80;4.95;;;;;;;11.54;78.18;102419.19;6262362;28;20196;-72
2021/09/22 06:55:19;;;;;;;7.78;4.60;;;;;;;11.58;77.88;102408.75;6262648;28;20216;-73
2021/09/22 06:58:25;;;;;;;6.65;4.40;;;;;;;11.65;77.60;102404.22;6261476;28;20476;-73
2021/09/22 07:01:29;;;;;;;4.95;4.55;;;;;;;11.72;77.19;102411.53;6262327;28;20192;-74
2021/09/22 07:04:33;;;;;;;4.28;3.97;;;;;;;11.58;76.87;102409.56;6261938;28;20286;-73
2021/09/22 07:07:37;;;;;;;5.10;4.40;;;;;;;11.71;77.46;102398.03;6261223;28;20468;-73
2021/09/22 07:10:42;;;;;;;4.93;4.22;;;;;;;11.80;76.95;102395.03;6261233;28;20350;-72
2021/09/22 07:13:48;;;;;;;10.07;3.90;;;;;;;11.81;77.76;102398.63;6261615;28;20264;-73
2021/09/22 07:16:53;;;;;;;5.40;3.80;;;;;;;11.83;78.72;102385.59;6262486;28;20256;-72
2021/09/22 07:19:57;;;;;;;5.50;3.90;;;;;;;11.81;77.87;102383.03;6262205;28;20226;-73
2021/09/22 07:23:03;;;;;;;4.82;3.80;;;;;;;11.74;76.42;102381.25;6262406;28;20220;-73
2021/09/22 07:26:08;;;;;;;3.80;3.60;;;;;;;11.85;76.88;102397.19;6262030;28;20185;-72
2021/09/22 07:29:14;;;;;;;4.15;3.75;;;;;;;11.89;77.42;102384.81;6263038;28;20270;-73
2021/09/22 07:32:18;;;;;;;6.13;3.55;;;;;;;11.95;77.59;102386.81;6266051;28;20376;-73
2021/09/22 07:35:23;;;;;;;3.58;3.28;;;;;;;12.10;77.21;102387.66;6265879;28;20398;-71
2021/09/22 07:38:27;;;;;;;4.32;3.78;;;;;;;12.12;78.76;102380.09;6266537;28;20185;-71
2021/09/22 07:41:31;;;;;;;5.10;3.80;;;;;;;12.05;78.75;102379.19;6267060;28;20192;-72
2021/09/22 07:44:37;;;;;;;3.95;3.20;;;;;;;12.05;76.89;102384.66;6265546;28;20446;-73
2021/09/22 07:47:41;;;;;;;3.35;3.08;;;;;;;12.15;77.38;102384.34;6265603;28;20526;-73
2021/09/22 07:50:47;;;;;;;3.50;3.20;;;;;;;12.13;77.06;102392.75;6265475;28;20399;-73
2021/09/22 07:53:51;;;;;;;3.03;2.92;;;;;;;12.27;76.01;102378.22;6266426;28;20221;-72
2021/09/22 07:56:55;;;;;;;5.55;3.45;;;;;;;12.33;75.97;102382.91;6266137;28;20185;-72
2021/09/22 08:00:01;;;;;;;7.22;3.38;;;;;;;12.43;75.18;102372.50;6266645;28;20263;-73
2021/09/22 08:03:17;;;;;;;7.30;3.40;;;;;;;12.47;75.40;102379.31;6265043;28;20404;-73
2021/09/22 08:06:23;;;;;;;4.25;3.20;;;;;;;12.53;74.78;102383.19;6264779;28;20296;-71
2021/09/22 08:09:27;;;;;;;3.25;3.10;;;;;;;12.49;74.50;102385.44;6264822;28;20185;-71
2021/09/22 08:12:31;;;;;;;7.50;2.80;;;;;;;12.54;72.84;102372.03;6264703;28;20496;-72
2021/09/22 08:15:38;;;;;;;5.10;3.08;;;;;;;12.51;73.29;102369.66;6266258;28;20192;-72
2021/09/22 08:18:46;;;;;;;2.97;2.78;;;;;;;12.45;70.35;102375.91;6265306;28;20188;-72
2021/09/22 08:21:50;;;;;;;3.10;2.83;;;;;;;12.53;70.89;102372.22;6266078;28;20263;-72
2021/09/22 08:24:54;;;;;;;7.20;2.85;;;;;;;12.53;70.44;102367.56;6264752;28;20213;-71
2021/09/22 08:27:58;;;;;;;3.05;2.78;;;;;;;12.68;70.76;102380.41;6264406;28;20278;-71
2021/09/22 08:31:05;;;;;;;3.60;3.28;;;;;;;12.86;69.96;102378.91;6264350;28;20449;-73
2021/09/22 08:34:09;;;;;;;12.60;3.13;;;;;;;12.93;68.90;102390.78;6265168;28;20252;-71
2021/09/22 08:37:13;;;;;;;6.30;3.00;;;;;;;12.82;69.40;102376.75;6265376;28;20189;-72
2021/09/22 08:40:17;;;;;;;7.03;3.10;;;;;;;12.87;69.63;102374.25;6265156;28;20185;-72
2021/09/22 08:43:23;;;;;;;3.20;3.00;;;;;;;12.99;69.57;102367.25;6264152;28;20554;-72
2021/09/22 08:46:29;;;;;;;5.03;2.72;;;;;;;13.06;69.61;102357.19;6263975;28;20185;-71
2021/09/22 08:49:35;;;;;;;4.10;3.25;;;;;;;13.03;69.82;102352.09;6265164;28;20207;-72
2021/09/22 08:52:40;;;;;;;2.83;2.63;;;;;;;12.96;70.38;102356.69;6265111;28;20223;-72
2021/09/22 08:55:44;;;;;;;2.78;2.67;;;;;;;13.14;69.86;102348.88;6264093;28;20356;-72
2021/09/22 08:58:50;;;;;;;2.83;2.72;;;;;;;13.29;69.05;102346.88;6265351;28;20223;-73
2021/09/22 09:02:12;;;;;;;3.20;3.00;;;;;;;13.28;67.93;102342.44;6264605;28;20344;-72
2021/09/22 09:05:18;;;;;;;3.10;3.00;;;;;;;13.21;68.14;102330.56;6264329;28;20240;-72
2021/09/22 09:08:22;;;;;;;3.22;3.03;;;;;;;13.19;67.54;102335.41;6265052;28;20189;-72
2021/09/22 09:11:28;;;;;;;2.90;2.80;;;;;;;13.27;68.17;102331.69;6264930;28;20191;-72
2021/09/22 09:14:35;;;;;;;2.88;2.67;;;;;;;13.38;68.60;102323.75;6265054;28;20189;-72
2021/09/22 09:17:44;;;;;;;4.43;3.08;;;;;;;13.32;69.25;102323.72;6263629;28;20407;-73
2021/09/22 09:20:50;;;;;;;4.45;3.10;;;;;;;13.41;68.18;102312.38;6264046;28;20208;-72
2021/09/22 09:23:56;;;;;;;4.72;3.35;;;;;;;13.32;67.77;102308.13;6263309;28;20555;-73
2021/09/22 09:27:00;;;;;;;2.95;2.85;;;;;;;13.41;68.75;102306.91;6263221;28;20528;-72
2021/09/22 09:30:16;;;;;;;3.53;2.95;;;;;;;13.28;69.02;102301.31;6264197;28;20185;-72
2021/09/22 09:33:39;;;;;;;2.72;2.70;;;;;;;13.36;68.79;102290.22;6262892;28;20443;-72
2021/09/22 09:36:45;;;;;;;3.05;2.95;;;;;;;13.48;68.12;102285.84;6264202;28;20239;-72
2021/09/22 09:39:49;;;;;;;5.93;2.85;;;;;;;13.61;67.92;102291.41;6262836;28;20520;-73
2021/09/22 09:42:55;;;;;;;3.22;3.05;;;;;;;13.76;67.64;102278.41;6262844;28;20184;-72
2021/09/22 09:45:59;;;;;;;4.15;2.83;;;;;;;13.91;66.59;102269.22;6262510;28;20462;-72
2021/09/22 09:49:09;;;;;;;3.05;2.92;;;;;;;14.05;65.34;102265.47;6262658;28;20357;-73
2021/09/22 09:52:13;;;;;;;3.00;2.90;;;;;;;14.14;65.04;102275.22;6262988;28;20185;-72
2021/09/22 09:55:18;;;;;;;4.15;2.45;;;;;;;14.24;64.38;102261.94;6262485;28;20377;-72
2021/09/22 09:58:23;;;;;;;6.20;2.83;;;;;;;14.21;63.75;102254.13;6262197;28;20529;-72
2021/09/22 10:01:37;;;;;;;10.55;2.95;;;;;;;14.31;63.71;102260.09;6262256;28;20429;-72
2021/09/22 10:04:42;;;;;;;3.78;2.60;;;;;;;14.25;63.94;102250.75;6262512;28;20592;-72
2021/09/22 10:07:49;;;;;;;2.55;2.45;;;;;;;14.33;64.75;102247.00;6262277;28;20495;-72
2021/09/22 10:10:55;;;;;;;2.60;2.50;;;;;;;14.60;62.74;102243.25;6263378;28;20260;-72
2021/09/22 10:14:03;;;;;;;2.90;2.65;;;;;;;14.56;64.55;102246.66;6262295;28;20424;-72
2021/09/22 10:17:08;;;;;;;2.38;2.33;;;;;;;14.71;63.00;102248.13;6263295;28;20221;-72
2021/09/22 10:20:17;;;;;;;2.28;2.22;;;;;;;14.64;62.87;102230.78;6263140;28;20300;-72
2021/09/22 10:23:23;;;;;;;2.58;2.28;;;;;;;14.72;62.00;102230.59;6262886;28;20217;-71
2021/09/22 10:26:28;;;;;;;2.50;2.50;;;;;;;14.72;62.19;102227.84;6263167;28;20215;-72
2021/09/22 10:29:36;;;;;;;2.60;2.50;;;;;;;14.74;62.06;102225.72;6262817;28;20189;-72
2021/09/22 10:32:42;;;;;;;15.93;3.78;;;;;;;14.85;61.28;102225.09;6262719;28;20256;-74
2021/09/22 10:35:55;;;;;;;6.65;2.80;;;;;;;14.78;62.50;102218.75;6261836;28;20199;-73
2021/09/22 10:39:05;;;;;;;4.70;2.83;;;;;;;14.87;61.98;102220.22;6261637;28;20481;-71
2021/09/22 10:42:24;;;;;;;2.60;2.50;;;;;;;15.01;60.82;102208.19;6261522;28;20498;-71
2021/09/22 10:45:28;;;;;;;2.50;2.40;;;;;;;15.02;60.79;102220.03;6261478;28;20451;-72
2021/09/22 10:48:34;;;;;;;2.58;2.40;;;;;;;15.07;59.95;102219.38;6261607;28;20232;-71
2021/09/22 10:51:44;;;;;;;2.58;2.45;;;;;;;15.15;60.80;102219.16;6262447;28;20191;-71
2021/09/22 10:55:07;;;;;;;3.00;2.80;;;;;;;14.95;60.66;102206.28;6262810;28;20220;-73
2021/09/22 10:58:13;;;;;;;2.80;2.70;;;;;;;15.00;60.51;102211.97;6261383;28;20185;-72
2021/09/22 11:01:49;;;;;;;2.58;2.25;;;;;;;14.86;57.26;102207.56;6261251;28;20185;-71
2021/09/22 11:04:59;;;;;;;2.25;2.20;;;;;;;14.85;57.93;102214.09;6263827;28;20259;-71
2021/09/22 11:08:05;;;;;;;4.43;2.47;;;;;;;14.83;58.53;102210.72;6270551;28;20185;-72
2021/09/22 11:11:12;;;;;;;3.13;2.63;;;;;;;14.88;58.06;102213.69;6270139;28;20197;-71
2021/09/22 11:14:29;;;;;;;2.67;2.58;;;;;;;14.87;59.93;102206.47;6269572;28;20401;-72
2021/09/22 11:17:35;;;;;;;2.78;2.58;;;;;;;14.80;58.77;102199.31;6270718;28;20247;-74
2021/09/22 11:20:40;;;;;;;2.50;2.35;;;;;;;14.82;58.82;102209.03;6270078;28;20185;-73
2021/09/22 11:23:45;;;;;;;2.60;2.50;;;;;;;14.81;59.97;102190.00;6270744;28;20259;-73
2021/09/22 11:26:50;;;;;;;2.50;2.40;;;;;;;14.77;60.80;102184.09;6270140;28;20216;-71
2021/09/22 11:29:58;;;;;;;2.63;2.55;;;;;;;14.87;59.12;102184.50;6269320;28;20412;-71
2021/09/22 11:33:02;;;;;;;2.58;2.38;;;;;;;14.83;60.62;102177.75;6270540;28;20207;-71
2021/09/22 11:36:07;;;;;;;2.50;2.50;;;;;;;14.78;61.26;102180.28;6270001;28;20189;-71
2021/09/22 11:39:25;;;;;;;2.40;2.30;;;;;;;14.78;61.22;102172.06;6269524;28;20189;-72
2021/09/22 11:42:30;;;;;;;2.35;2.25;;;;;;;14.64;60.88;102162.13;6270300;28;20256;-72
2021/09/22 11:45:37;;;;;;;2.55;1.77;;;;;;;14.54;62.16;102172.69;6270339;28;20219;-72
2021/09/22 11:48:41;;;;;;;4.25;2.58;;;;;;;14.57;61.74;102164.03;6269484;28;20252;-72
2021/09/22 11:51:45;;;;;;;2.22;2.22;;;;;;;14.44;60.78;102161.28;6270392;28;20304;-72
2021/09/22 11:54:56;;;;;;;3.90;2.65;;;;;;;14.54;59.18;102160.84;6269989;28;20189;-72
2021/09/22 11:58:04;;;;;;;2.95;2.85;;;;;;;14.66;59.82;102143.50;6268975;28;20239;-72
2021/09/22 12:01:10;;;;;;;2.72;2.63;;;;;;;14.17;59.89;102154.03;6269446;28;20210;-72
2021/09/22 12:04:15;;;;;;;6.25;2.90;;;;;;;14.24;59.70;102138.41;6268773;28;20540;-72
2021/09/22 12:07:29;;;;;;;5.35;2.80;;;;;;;14.29;60.71;102135.88;6268777;28;20534;-71
2021/09/22 12:10:36;;;;;;;9.65;2.72;;;;;;;14.42;61.20;102141.41;6268980;28;20252;-71
2021/09/22 12:13:41;;;;;;;2.35;2.35;;;;;;;14.56;59.61;102134.03;6269822;28;20185;-71
2021/09/22 12:16:46;;;;;;;3.22;2.90;;;;;;;14.45;60.61;102124.53;6264551;28;20504;-71
2021/09/22 12:19:51;;;;;;;3.25;2.80;;;;;;;14.57;61.26;102122.81;6266144;28;20185;-71
2021/09/22 12:23:00;;;;;;;4.03;2.97;;;;;;;14.17;61.48;102123.84;6265180;28;20275;-71
2021/09/22 12:26:14;;;;;;;3.67;3.20;;;;;;;14.22;62.02;102129.56;6265619;28;20219;-71
2021/09/22 12:29:19;;;;;;;3.25;3.05;;;;;;;14.16;63.05;102120.25;6265955;28;20195;-71
2021/09/22 12:32:25;;;;;;;6.50;2.63;;;;;;;14.09;62.99;102113.91;6264736;28;20186;-73
2021/09/22 12:35:31;;;;;;;3.90;2.97;;;;;;;14.33;63.03;102126.19;6265514;28;20220;-73
2021/09/22 12:38:44;;;;;;;2.83;2.83;;;;;;;14.40;64.73;102116.94;6265032;28;20217;-73
2021/09/22 12:42:00;;;;;;;3.63;3.33;;;;;;;14.27;64.22;102102.31;6264397;28;20511;-72
2021/09/22 12:45:08;;;;;;;8.07;3.38;;;;;;;14.35;63.87;102110.38;6265494;28;20185;-73
2021/09/22 12:48:22;;;;;;;3.55;3.15;;;;;;;14.39;65.12;102103.41;6264275;28;20504;-73
2021/09/22 12:51:27;;;;;;;3.72;2.97;;;;;;;14.52;64.35;102092.41;6265581;28;20185;-72
2021/09/22 12:54:32;;;;;;;5.72;4.00;;;;;;;14.53;64.71;102083.13;6264946;28;20185;-73
2021/09/22 12:57:42;;;;;;;3.65;3.35;;;;;;;14.49;65.74;102076.34;6265312;28;20189;-73
2021/09/22 13:00:55;;;;;;;5.55;2.63;;;;;;;14.32;66.60;102075.94;6263896;28;20484;-72
2021/09/22 13:03:59;;;;;;;8.40;2.40;;;;;;;14.46;66.36;102060.28;6263989;28;20244;-73
2021/09/22 13:07:04;;;;;;;3.13;2.60;;;;;;;14.51;66.52;102068.72;6263333;28;20213;-73
2021/09/22 13:10:09;;;;;;;2.50;2.40;;;;;;;14.29;67.72;102078.22;6246220;28;20200;-73
2021/09/22 13:13:16;;;;;;;3.13;2.72;;;;;;;14.56;67.34;102070.88;6264601;28;20263;-73
2021/09/22 13:16:31;;;;;;;2.17;2.08;;;;;;;14.49;68.04;102057.13;6264308;28;20421;-73
2021/09/22 13:19:36;;;;;;;5.35;2.47;;;;;;;14.58;67.82;102064.09;6264594;28;20185;-73
2021/09/22 13:22:43;;;;;;;4.97;2.33;;;;;;;14.67;67.53;102057.31;6263213;28;20475;-73
2021/09/22 13:25:47;;;;;;;2.45;2.40;;;;;;;14.49;68.75;102056.28;6263987;28;20251;-73
2021/09/22 13:28:57;;;;;;;2.42;2.22;;;;;;;14.44;68.51;102045.94;6263298;28;20184;-72
2021/09/22 13:32:04;;;;;;;2.33;2.22;;;;;;;14.33;69.41;102049.31;6263046;28;20465;-72
2021/09/22 13:35:09;;;;;;;2.35;2.15;;;;;;;14.47;69.23;102047.41;6246325;28;20200;-73
2021/09/22 13:38:15;;;;;;;2.90;2.28;;;;;;;14.31;69.69;102040.47;6262768;28;20197;-73
2021/09/22 13:41:19;;;;;;;1.77;1.73;;;;;;;14.61;68.52;102033.44;6263790;28;20185;-73
2021/09/22 13:44:25;;;;;;;3.25;2.10;;;;;;;14.73;68.17;102034.47;6262796;28;20184;-72
2021/09/22 13:47:31;;;;;;;2.13;2.03;;;;;;;14.60;68.85;102040.00;6263528;28;20276;-73
2021/09/22 13:50:36;;;;;;;7.90;6.60;;;;;;;14.52;69.09;102014.66;6263556;28;20272;-72
2021/09/22 13:53:40;;;;;;;2.30;2.20;;;;;;;14.59;69.35;102013.59;6262646;28;20193;-72
2021/09/22 13:56:45;;;;;;;2.15;1.92;;;;;;;14.73;68.60;102006.16;6263438;28;20196;-72
2021/09/22 13:59:51;;;;;;;4.22;2.13;;;;;;;14.71;68.75;102003.66;6262526;28;20223;-72
2021/09/22 14:02:55;;;;;;;2.40;1.73;;;;;;;14.67;69.23;101991.38;6262225;28;20211;-72
2021/09/22 14:06:00;;;;;;;3.38;1.52;;;;;;;14.49;70.20;101993.13;6262113;28;20296;-72
2021/09/22 14:09:04;;;;;;;4.68;1.85;;;;;;;14.54;69.77;101974.94;6263579;28;20185;-72
2021/09/22 14:12:13;;;;;;;1.85;1.52;;;;;;;14.41;70.80;101977.72;6263288;28;20185;-72
2021/09/22 14:15:18;;;;;;;2.90;1.50;;;;;;;14.49;70.80;101972.00;6262132;28;20468;-71
2021/09/22 14:18:23;;;;;;;1.55;1.45;;;;;;;14.41;71.10;101962.09;6261935;28;20461;-71
2021/09/22 14:21:27;;;;;;;1.70;1.40;;;;;;;14.38;71.21;101961.66;6263235;28;20260;-72
2021/09/22 14:24:31;;;;;;;4.00;2.58;;;;;;;14.53;70.20;101962.28;6262819;28;20185;-71
2021/09/22 14:27:37;;;;;;;4.00;2.25;;;;;;;14.53;70.40;101945.81;6262518;28;20208;-71
2021/09/22 14:30:44;;;;;;;1.50;1.50;;;;;;;14.44;70.96;101947.09;6262112;28;20238;-71
2021/09/22 14:33:48;;;;;;;1.52;1.42;;;;;;;14.52;70.50;101944.09;6261617;28;20383;-71
2021/09/22 14:36:52;;;;;;;1.85;1.40;;;;;;;14.67;69.65;101952.94;6262816;28;20255;-71